Time;durP1;ratioP1;P1;durP2;ratioP2;P2;SDS_P1;SDS_P2;PMS_P1;PMS_P2;Temp;Humidity;BMP_temperature;BMP_pressure;BME280_temperature;BME280_humidity;BME280_pressure;Samples;Min_cycle;Max_cycle;Signal;HPM_P1;HPM_P2
2023/01/01 00:00:07;;;;;;;;;;;;;;;3.91;100.00;101089.91;2494341;27;19937;-76
2023/01/01 00:00:17;;;;;;;;;;;;;;;3.93;100.00;101083.03;353254;27;4141;-75
2023/01/01 00:00:27;;;;;;;;;;;;;;;3.93;100.00;101089.09;353303;28;1422;-76
2023/01/01 00:00:37;;;;;;;;;;;;;;;3.94;100.00;101089.94;349641;28;4544;-76
2023/01/01 00:00:48;;;;;;;;;;;;;;;3.93;100.00;101085.63;348063;28;6863;-75
2023/01/01 00:00:58;;;;;;;;;;;;;;;3.92;100.00;101079.56;347607;28;1982;-76
2023/01/01 00:01:09;;;;;;;;;;;;;;;3.93;100.00;101083.03;348700;28;1693;-75
2023/01/01 00:01:19;;;;;;;;;;;;;;;3.92;100.00;101083.88;348082;28;7381;-78
2023/01/01 00:01:29;;;;;;;;;;;;;;;3.91;100.00;101084.75;349956;28;2117;-77
2023/01/01 00:01:40;;;;;;;;;;;;;;;3.91;100.00;101085.59;349306;28;4519;-77
2023/01/01 00:01:50;;;;;;;;;;;;;;;3.89;100.00;101087.34;346220;28;7351;-76
2023/01/01 00:02:00;;;;;;;;;;;;;;;3.91;100.00;101084.75;346824;28;2068;-76
2023/01/01 00:02:10;;;;;;;;;;;;;;;3.90;100.00;101083.88;347747;28;1818;-76
2023/01/01 00:02:21;;;;;;;;;;;;;;;3.89;100.00;101081.28;347757;28;4622;-75
2023/01/01 00:02:31;;;;;;;;;;;;;;;3.90;100.00;101090.81;347566;28;4288;-76
2023/01/01 00:02:42;;;;;;;;;;;;;;;3.90;100.00;101089.06;346180;28;6932;-76
2023/01/01 00:02:52;;;;;;;;;;;;;;;3.91;100.00;101084.75;346125;28;7262;-76
2023/01/01 00:03:02;;;;;;;;;;;;;;;3.91;100.00;101084.75;346519;28;1772;-77
2023/01/01 00:03:13;;;;;;;;;;;;;;;3.91;100.00;101084.75;345328;28;6913;-77
2023/01/01 00:03:23;;;;;;;;;;;;;;;3.91;100.00;101085.59;347777;28;1435;-77
2023/01/01 00:03:33;;;;;;;;;;;;;;;3.91;100.00;101088.19;349969;28;1302;-74
2023/01/01 00:03:43;;;;;;;;;;;;;;;3.92;100.00;101083.88;349062;28;1567;-74
2023/01/01 00:03:54;;;;;;;;;;;;;;;3.92;100.00;101086.47;348017;28;1473;-78
2023/01/01 00:04:06;;;;;;;;;;;;;;;3.91;100.00;101080.44;350385;28;914;-76
2023/01/01 00:04:16;;;;;;;;;;;;;;;3.92;100.00;101086.47;349649;28;1532;-76
2023/01/01 00:04:27;;;;;;;;;;;;;;;3.92;100.00;101089.06;349307;28;2081;-75
2023/01/01 00:04:38;;;;;;;;;;;;;;;3.92;100.00;101081.28;350215;28;1474;-75
2023/01/01 00:04:48;;;;;;;;;;;;;;;3.91;100.00;101079.56;348942;28;1193;-75
2023/01/01 00:04:59;;;;;;;;;;;;;;;3.91;100.00;101085.59;347616;28;2045;-75
2023/01/01 00:05:09;;;;;;;;;;;;;;;3.92;100.00;101086.47;348811;28;2017;-75
2023/01/01 00:05:19;;;;;;;;;;;;;;;3.92;100.00;101082.16;348997;28;1180;-76
2023/01/01 00:05:29;;;;;;;;;;;;;;;3.93;100.00;101083.03;348902;28;1632;-76
2023/01/01 00:05:40;;;;;;;;;;;;;;;3.94;100.00;101079.59;348743;28;1434;-75
2023/01/01 00:05:50;;;;;;;;;;;;;;;3.94;100.00;101089.94;348826;28;782;-75
2023/01/01 00:06:10;;;;;;;;;;;;;;;3.95;100.00;101083.91;349645;28;2226;-76
2023/01/01 00:06:20;;;;;;;;;;;;;;;3.95;100.00;101077.00;348831;28;1574;-75
2023/01/01 00:06:30;;;;;;;;;;;;;;;3.96;100.00;101078.75;347722;28;1738;-75
2023/01/01 00:06:41;;;;;;;;;;;;;;;3.97;100.00;101079.63;345147;28;1435;-76
2023/01/01 00:06:51;;;;;;;;;;;;;;;3.97;100.00;101079.63;346123;28;1304;-76
2023/01/01 00:07:01;;;;;;;;;;;;;;;3.98;100.00;101081.34;344667;28;1585;-76
2023/01/01 00:07:12;;;;;;;;;;;;;;;3.97;100.00;101077.03;347549;28;1435;-76
2023/01/01 00:07:22;;;;;;;;;;;;;;;3.97;100.00;101080.50;347696;28;1297;-76
2023/01/01 00:07:32;;;;;;;;;;;;;;;3.98;100.00;101076.19;347339;28;1515;-78
2023/01/01 00:07:42;;;;;;;;;;;;;;;3.98;100.00;101081.34;343572;28;1442;-76
2023/01/01 00:07:53;;;;;;;;;;;;;;;3.99;100.00;101083.09;339415;29;1665;-76
2023/01/01 00:08:03;;;;;;;;;;;;;;;3.97;100.00;101082.22;342580;28;1267;-76
2023/01/01 00:08:13;;;;;;;;;;;;;;;3.97;100.00;101079.63;342112;28;2092;-77
2023/01/01 00:08:23;;;;;;;;;;;;;;;3.98;100.00;101081.34;338314;29;1662;-76
2023/01/01 00:08:34;;;;;;;;;;;;;;;3.98;100.00;101083.94;338214;29;1278;-78
2023/01/01 00:08:44;;;;;;;;;;;;;;;3.98;100.00;101076.19;337790;29;1419;-76
2023/01/01 00:10:27;;;;;;;;;;;;;;;3.93;100.00;101081.31;329984;29;6584;-76
2023/01/01 00:10:37;;;;;;;;;;;;;;;3.95;100.00;101077.00;332866;29;1777;-77
2023/01/01 00:10:47;;;;;;;;;;;;;;;3.93;100.00;101075.25;332917;29;3636;-77
2023/01/01 00:11:01;;;;;;;;;;;;;;;3.92;100.00;101084.75;332294;29;2040;-77
2023/01/01 00:11:11;;;;;;;;;;;;;;;3.93;100.00;101083.91;334059;29;6920;-75
2023/01/01 00:11:21;;;;;;;;;;;;;;;3.93;100.00;101083.03;335919;29;3816;-76
2023/01/01 00:11:34;;;;;;;;;;;;;;;3.94;100.00;101090.81;332639;29;1472;-77
2023/01/01 00:11:45;;;;;;;;;;;;;;;3.92;100.00;101084.75;331099;29;2728;-76
2023/01/01 00:11:55;;;;;;;;;;;;;;;3.91;100.00;101087.31;330639;29;4318;-76
2023/01/01 00:12:05;;;;;;;;;;;;;;;3.91;100.00;101093.38;327216;29;4315;-75
2023/01/01 00:12:15;;;;;;;;;;;;;;;3.88;100.00;101085.59;326925;29;7071;-75
2023/01/01 00:12:26;;;;;;;;;;;;;;;3.87;100.00;101093.34;327932;30;7133;-76
2023/01/01 00:12:36;;;;;;;;;;;;;;;3.86;100.00;101091.63;325408;30;1972;-76
2023/01/01 00:12:49;;;;;;;;;;;;;;;3.85;100.00;101089.88;325347;30;7333;-78
2023/01/01 00:12:59;;;;;;;;;;;;;;;3.85;100.00;101084.72;324996;30;2296;-76
2023/01/01 00:13:11;;;;;;;;;;;;;;;3.86;100.00;101083.84;323546;30;3792;-77
2023/01/01 00:13:21;;;;;;;;;;;;;;;3.85;100.00;101082.13;323489;30;6954;-77
2023/01/01 00:13:32;;;;;;;;;;;;;;;3.85;100.00;101089.88;322548;30;2249;-77
2023/01/01 00:13:43;;;;;;;;;;;;;;;3.86;100.00;101087.31;320306;30;2191;-77
2023/01/01 00:13:53;;;;;;;;;;;;;;;3.86;100.00;101086.44;318588;30;1392;-77
2023/01/01 00:14:04;;;;;;;;;;;;;;;3.87;100.00;101090.78;318077;30;4095;-76
2023/01/01 00:14:15;;;;;;;;;;;;;;;3.86;100.00;101081.25;315269;31;6880;-77
2023/01/01 00:14:26;;;;;;;;;;;;;;;3.83;100.00;101086.41;316646;31;2234;-77
2023/01/01 00:14:38;;;;;;;;;;;;;;;3.84;100.00;101082.97;315849;31;2080;-77
2023/01/01 00:14:48;;;;;;;;;;;;;;;3.81;100.00;101088.97;314563;31;3909;-77
2023/01/01 00:14:58;;;;;;;;;;;;;;;3.79;100.00;101084.66;314611;31;3183;-76
2023/01/01 00:15:08;;;;;;;;;;;;;;;3.74;100.00;101086.31;312397;31;3918;-76
2023/01/01 00:15:19;;;;;;;;;;;;;;;3.68;100.00;101081.94;310613;31;7057;-76
2023/01/01 00:15:29;;;;;;;;;;;;;;;3.62;100.00;101090.50;309516;31;2651;-76
2023/01/01 00:15:39;;;;;;;;;;;;;;;3.60;100.00;101083.56;307640;32;2733;-75
2023/01/01 00:15:49;;;;;;;;;;;;;;;3.62;100.00;101087.03;309936;31;3663;-78
2023/01/01 00:16:04;;;;;;;;;;;;;;;3.63;100.00;101088.78;307525;31;4391;-75
2023/01/01 00:16:14;;;;;;;;;;;;;;;3.62;100.00;101090.50;300511;32;7178;-75
2023/01/01 00:16:24;;;;;;;;;;;;;;;3.62;100.00;101085.31;298208;33;2021;-75
2023/01/01 00:16:34;;;;;;;;;;;;;;;3.62;100.00;101085.31;297709;32;3718;-76
2023/01/01 00:16:45;;;;;;;;;;;;;;;3.60;100.00;101089.63;299557;32;4588;-75
2023/01/01 00:16:55;;;;;;;;;;;;;;;3.58;100.00;101085.28;300192;32;1440;-76
2023/01/01 00:17:05;;;;;;;;;;;;;;;3.55;100.00;101088.69;296456;32;6878;-75
2023/01/01 00:17:15;;;;;;;;;;;;;;;3.55;100.00;101091.28;300205;32;4374;-76
2023/01/01 00:17:25;;;;;;;;;;;;;;;3.56;100.00;101092.16;302719;32;4080;-75
2023/01/01 00:17:36;;;;;;;;;;;;;;;3.54;100.00;101089.53;302247;32;2018;-76
2023/01/01 00:17:46;;;;;;;;;;;;;;;3.57;100.00;101093.88;300081;32;4236;-76
2023/01/01 00:17:56;;;;;;;;;;;;;;;3.57;100.00;101093.88;297332;33;4329;-76
2023/01/01 00:18:06;;;;;;;;;;;;;;;3.55;100.00;101088.69;294968;33;4561;-76
2023/01/01 00:18:17;;;;;;;;;;;;;;;3.54;100.00;101089.53;295737;32;7011;-76
2023/01/01 00:18:27;;;;;;;;;;;;;;;3.54;100.00;101086.94;294443;33;4077;-77
2023/01/01 00:18:37;;;;;;;;;;;;;;;3.54;100.00;101084.38;293900;33;3939;-76
2023/01/01 00:18:47;;;;;;;;;;;;;;;3.54;100.00;101097.31;294814;33;5188;-76
2023/01/01 00:18:58;;;;;;;;;;;;;;;3.55;100.00;101091.28;295646;33;6968;-76
2023/01/01 00:19:08;;;;;;;;;;;;;;;3.57;100.00;101088.72;293169;33;4765;-76
2023/01/01 00:19:18;;;;;;;;;;;;;;;3.58;100.00;101086.13;291202;33;6253;-76
2023/01/01 00:19:28;;;;;;;;;;;;;;;3.61;100.00;101087.91;288339;34;6303;-76
2023/01/01 00:19:39;;;;;;;;;;;;;;;3.62;100.00;101092.22;287365;34;4465;-76
2023/01/01 00:19:49;;;;;;;;;;;;;;;3.62;100.00;101087.91;287897;34;5904;-76
2023/01/01 00:19:59;;;;;;;;;;;;;;;3.65;100.00;101093.13;286343;34;5588;-76
2023/01/01 00:20:10;;;;;;;;;;;;;;;3.66;100.00;101089.69;283556;34;6070;-77
2023/01/01 00:20:20;;;;;;;;;;;;;;;3.67;100.00;101086.25;279658;34;4382;-77
2023/01/01 00:20:31;;;;;;;;;;;;;;;3.68;100.00;101095.75;280617;34;5472;-76
2023/01/01 00:20:42;;;;;;;;;;;;;;;3.71;100.00;101088.88;282285;34;6759;-76
2023/01/01 00:20:55;;;;;;;;;;;;;;;3.72;100.00;101094.06;281901;35;3595;-76
2023/01/01 00:22:29;;;;;;;;;;;;;;;3.75;100.00;101095.81;2487113;27;20461;-75
2023/01/01 00:22:40;;;;;;;;;;;;;;;3.74;100.00;101096.66;352902;28;1765;-75
2023/01/01 00:22:50;;;;;;;;;;;;;;;3.73;100.00;101090.63;350394;28;4197;-75
2023/01/01 00:23:00;;;;;;;;;;;;;;;3.74;100.00;101099.25;347251;28;4031;-76
2023/01/01 00:23:11;;;;;;;;;;;;;;;3.74;100.00;101094.06;346346;28;6576;-76
2023/01/01 00:23:21;;;;;;;;;;;;;;;3.76;100.00;101094.97;349886;28;4331;-76
2023/01/01 00:23:32;;;;;;;;;;;;;;;3.76;100.00;101094.97;350420;28;1563;-76
2023/01/01 00:23:42;;;;;;;;;;;;;;;3.76;100.00;101100.16;349199;28;1536;-76
2023/01/01 00:23:52;;;;;;;;;;;;;;;3.77;100.00;101096.69;348307;28;1955;-76
2023/01/01 00:24:03;;;;;;;;;;;;;;;3.76;100.00;101093.25;348773;28;4505;-77
2023/01/01 00:24:13;;;;;;;;;;;;;;;3.76;100.00;101095.84;346423;28;6699;-76
2023/01/01 00:24:23;;;;;;;;;;;;;;;3.78;100.00;101093.25;348277;28;4238;-76
2023/01/01 00:24:34;;;;;;;;;;;;;;;3.78;100.00;101095.84;348867;28;1777;-76
2023/01/01 00:24:44;;;;;;;;;;;;;;;3.77;100.00;101088.94;346610;28;3496;-76
2023/01/01 00:24:54;;;;;;;;;;;;;;;3.79;100.00;101092.41;346271;28;1340;-76
2023/01/01 00:25:04;;;;;;;;;;;;;;;3.79;100.00;101095.00;343826;28;4847;-75
2023/01/01 00:25:16;;;;;;;;;;;;;;;3.80;100.00;101099.31;343997;28;7073;-76
2023/01/01 00:25:26;;;;;;;;;;;;;;;3.79;100.00;101087.22;347338;28;1765;-77
2023/01/01 00:25:38;;;;;;;;;;;;;;;3.78;100.00;101091.53;347518;28;1931;-76
2023/01/01 00:25:48;;;;;;;;;;;;;;;3.79;100.00;101095.88;347209;28;820;-76
2023/01/01 00:25:59;;;;;;;;;;;;;;;3.79;100.00;101095.00;349118;28;1348;-76
2023/01/01 00:26:09;;;;;;;;;;;;;;;3.78;100.00;101093.25;346775;28;4136;-76
2023/01/01 00:26:20;;;;;;;;;;;;;;;3.78;100.00;101088.09;345051;28;3922;-76
2023/01/01 00:26:31;;;;;;;;;;;;;;;3.79;100.00;101095.00;345847;28;5054;-76
2023/01/01 00:26:41;;;;;;;;;;;;;;;3.80;100.00;101101.91;345743;28;1816;-76
2023/01/01 00:26:51;;;;;;;;;;;;;;;3.78;100.00;101094.13;346097;28;4146;-76
2023/01/01 00:27:02;;;;;;;;;;;;;;;3.79;100.00;101089.81;347374;28;1371;-76
2023/01/01 00:27:12;;;;;;;;;;;;;;;3.80;100.00;101091.56;347379;28;6242;-76
2023/01/01 00:27:22;;;;;;;;;;;;;;;3.80;100.00;101091.56;349489;28;3826;-76
2023/01/01 00:27:32;;;;;;;;;;;;;;;3.79;100.00;101095.00;347434;28;2249;-77
2023/01/01 00:27:43;;;;;;;;;;;;;;;3.78;100.00;101093.25;348344;28;1830;-77
2023/01/01 00:27:53;;;;;;;;;;;;;;;3.80;100.00;101096.72;346290;28;1299;-77
2023/01/01 00:28:03;;;;;;;;;;;;;;;3.78;100.00;101091.53;343252;28;4274;-77
2023/01/01 00:28:13;;;;;;;;;;;;;;;3.78;100.00;101094.13;343361;28;6876;-76
2023/01/01 00:28:24;;;;;;;;;;;;;;;3.79;100.00;101095.88;346736;28;3999;-76
2023/01/01 00:28:34;;;;;;;;;;;;;;;3.79;100.00;101095.00;344413;28;1577;-76
2023/01/01 00:28:44;;;;;;;;;;;;;;;3.79;100.00;101089.81;343361;28;3861;-76
2023/01/01 00:28:55;;;;;;;;;;;;;;;3.79;100.00;101097.59;343424;28;1353;-76
2023/01/01 00:29:05;;;;;;;;;;;;;;;3.77;100.00;101092.38;343791;28;4589;-76
2023/01/01 00:29:15;;;;;;;;;;;;;;;3.77;100.00;101101.88;343578;28;6810;-76
2023/01/01 00:29:25;;;;;;;;;;;;;;;3.77;100.00;101099.28;344843;28;1297;-76
2023/01/01 00:29:35;;;;;;;;;;;;;;;3.77;100.00;101101.88;343637;28;1857;-76
2023/01/01 00:29:46;;;;;;;;;;;;;;;3.75;100.00;101099.28;344986;28;3707;-77
2023/01/01 00:29:56;;;;;;;;;;;;;;;3.76;100.00;101097.56;343587;28;1942;-77
2023/01/01 00:30:07;;;;;;;;;;;;;;;3.75;100.00;101096.69;343242;28;3977;-77
2023/01/01 00:30:17;;;;;;;;;;;;;;;3.75;100.00;101098.41;343758;28;3903;-77
2023/01/01 00:30:27;;;;;;;;;;;;;;;3.74;100.00;101092.34;342285;28;1515;-76
2023/01/01 00:30:38;;;;;;;;;;;;;;;3.75;100.00;101103.59;338442;29;1941;-77
2023/01/01 00:30:48;;;;;;;;;;;;;;;3.75;100.00;101106.16;339230;28;4351;-77
2023/01/01 00:30:58;;;;;;;;;;;;;;;3.74;100.00;101096.66;339493;29;4166;-77
2023/01/01 00:31:09;;;;;;;;;;;;;;;3.73;100.00;101102.69;339532;28;6637;-76
2023/01/01 00:31:21;;;;;;;;;;;;;;;3.72;100.00;101095.78;340482;28;3986;-78
2023/01/01 00:31:31;;;;;;;;;;;;;;;3.73;100.00;101100.09;340347;29;1469;-79
2023/01/01 00:31:41;;;;;;;;;;;;;;;3.73;100.00;101100.09;338601;29;7145;-77
2023/01/01 00:31:52;;;;;;;;;;;;;;;3.73;100.00;101107.88;338280;29;1227;-77
2023/01/01 00:32:02;;;;;;;;;;;;;;;3.72;100.00;101099.25;336336;29;6361;-76
2023/01/01 00:32:12;;;;;;;;;;;;;;;3.72;100.00;101093.19;338698;29;4309;-76
2023/01/01 00:32:23;;;;;;;;;;;;;;;3.74;100.00;101101.84;338365;29;4155;-76
2023/01/01 00:32:33;;;;;;;;;;;;;;;3.75;100.00;101103.59;339354;29;1943;-77
2023/01/01 00:32:44;;;;;;;;;;;;;;;3.74;100.00;101104.44;336507;29;4138;-77
2023/01/01 00:32:54;;;;;;;;;;;;;;;3.75;100.00;101098.41;336404;29;4480;-77
2023/01/01 00:33:05;;;;;;;;;;;;;;;3.75;100.00;101098.41;331865;29;3920;-76
2023/01/01 00:33:15;;;;;;;;;;;;;;;3.75;100.00;101103.59;332591;29;1721;-76
2023/01/01 00:33:25;;;;;;;;;;;;;;;3.76;100.00;101105.31;330597;29;2005;-76
2023/01/01 00:33:35;;;;;;;;;;;;;;;3.76;100.00;101106.19;331244;29;4415;-76
2023/01/01 00:33:48;;;;;;;;;;;;;;;3.76;100.00;101100.16;335294;29;2087;-77
2023/01/01 00:33:59;;;;;;;;;;;;;;;3.75;100.00;101103.59;331747;29;6644;-76
2023/01/01 00:34:09;;;;;;;;;;;;;;;3.75;100.00;101103.59;332858;29;4242;-76
2023/01/01 00:34:20;;;;;;;;;;;;;;;3.73;100.00;101105.28;334464;29;7390;-76
2023/01/01 00:34:30;;;;;;;;;;;;;;;3.72;100.00;101108.72;331477;29;2042;-76
2023/01/01 00:34:40;;;;;;;;;;;;;;;3.70;100.00;101106.13;330864;29;4261;-77
2023/01/01 00:34:50;;;;;;;;;;;;;;;3.69;100.00;101101.78;328459;29;2333;-76
2023/01/01 00:35:00;;;;;;;;;;;;;;;3.67;100.00;101108.66;327453;29;6333;-76
2023/01/01 00:35:11;;;;;;;;;;;;;;;3.65;100.00;101100.03;327429;30;2427;-76
2023/01/01 00:35:21;;;;;;;;;;;;;;;3.67;100.00;101108.66;324859;30;2482;-77
2023/01/01 00:35:32;;;;;;;;;;;;;;;3.66;100.00;101110.41;324408;30;3671;-77
2023/01/01 00:35:42;;;;;;;;;;;;;;;3.65;100.00;101103.47;326244;30;2618;-77
2023/01/01 00:35:52;;;;;;;;;;;;;;;3.65;100.00;101103.47;326808;30;4745;-77
2023/01/01 00:36:06;;;;;;;;;;;;;;;3.65;100.00;101103.47;323867;30;6420;-76
2023/01/01 00:36:16;;;;;;;;;;;;;;;3.65;100.00;101102.59;322805;30;3698;-79
2023/01/01 00:36:27;;;;;;;;;;;;;;;3.65;100.00;101107.78;320611;30;1835;-77
2023/01/01 00:36:37;;;;;;;;;;;;;;;3.64;100.00;101100.88;319813;30;3994;-77
2023/01/01 00:36:47;;;;;;;;;;;;;;;3.65;100.00;101098.31;318453;30;1917;-76
2023/01/01 00:36:58;;;;;;;;;;;;;;;3.64;100.00;101104.31;322250;30;4754;-76
2023/01/01 00:37:08;;;;;;;;;;;;;;;3.64;100.00;101111.22;322831;30;3967;-77
2023/01/01 00:37:18;;;;;;;;;;;;;;;3.64;100.00;101106.91;320854;30;1503;-76
2023/01/01 00:37:29;;;;;;;;;;;;;;;3.65;100.00;101100.88;314600;31;3915;-76
2023/01/01 00:37:39;;;;;;;;;;;;;;;3.65;100.00;101103.47;314023;31;3358;-76
2023/01/01 00:37:49;;;;;;;;;;;;;;;3.66;100.00;101100.03;312265;31;4105;-76
2023/01/01 00:37:59;;;;;;;;;;;;;;;3.67;100.00;101106.94;310093;31;6716;-76
2023/01/01 00:38:10;;;;;;;;;;;;;;;3.66;100.00;101107.81;310269;31;3760;-76
2023/01/01 00:38:20;;;;;;;;;;;;;;;3.67;100.00;101106.09;313100;31;2146;-75
2023/01/01 00:38:31;;;;;;;;;;;;;;;3.67;100.00;101106.94;311900;31;3824;-75
2023/01/01 00:38:42;;;;;;;;;;;;;;;3.67;100.00;101104.38;309128;32;2474;-75
2023/01/01 00:38:52;;;;;;;;;;;;;;;3.67;100.00;101106.94;305621;31;4756;-75
2023/01/01 00:39:02;;;;;;;;;;;;;;;3.67;100.00;101109.53;304961;32;4040;-75
2023/01/01 00:39:13;;;;;;;;;;;;;;;3.67;100.00;101106.94;301634;32;3895;-75
2023/01/01 00:39:23;;;;;;;;;;;;;;;3.66;100.00;101107.81;304725;32;4410;-75
2023/01/01 00:39:33;;;;;;;;;;;;;;;3.66;100.00;101107.81;308558;32;3882;-77
2023/01/01 00:39:43;;;;;;;;;;;;;;;3.64;100.00;101101.75;301304;32;1334;-73
2023/01/01 00:39:54;;;;;;;;;;;;;;;3.63;100.00;101105.19;300867;32;6672;-77
2023/01/01 00:40:04;;;;;;;;;;;;;;;3.62;100.00;101108.63;303735;32;4077;-77
2023/01/01 00:40:14;;;;;;;;;;;;;;;3.62;100.00;101108.63;301374;32;1488;-76
2023/01/01 00:40:25;;;;;;;;;;;;;;;3.63;100.00;101106.91;301557;32;2598;-76
2023/01/01 00:40:35;;;;;;;;;;;;;;;3.62;100.00;101103.44;301301;32;4005;-76
2023/01/01 00:40:45;;;;;;;;;;;;;;;3.63;100.00;101109.47;301190;32;1433;-76
2023/01/01 00:40:55;;;;;;;;;;;;;;;3.62;100.00;101108.63;297194;32;6299;-76
2023/01/01 00:41:06;;;;;;;;;;;;;;;3.62;100.00;101108.63;293680;33;5396;-75
2023/01/01 00:41:16;;;;;;;;;;;;;;;3.62;100.00;101106.03;289786;34;2094;-75
2023/01/01 00:41:26;;;;;;;;;;;;;;;3.61;100.00;101101.72;287263;34;6756;-77
2023/01/01 00:41:36;;;;;;;;;;;;;;;3.62;100.00;101108.63;285574;33;6483;-75
2023/01/01 00:41:47;;;;;;;;;;;;;;;3.61;100.00;101106.88;286263;34;4164;-76
2023/01/01 00:41:57;;;;;;;;;;;;;;;3.60;100.00;101099.97;288939;33;6957;-76
2023/01/01 00:42:07;;;;;;;;;;;;;;;3.60;100.00;101105.16;287874;34;5805;-75
2023/01/01 00:42:17;;;;;;;;;;;;;;;3.60;100.00;101102.56;287576;34;1839;-75
2023/01/01 00:42:27;;;;;;;;;;;;;;;3.61;100.00;101106.88;287573;34;4997;-76
2023/01/01 00:42:40;;;;;;;;;;;;;;;3.62;100.00;101103.44;285271;34;3631;-76
2023/01/01 00:42:50;;;;;;;;;;;;;;;3.62;100.00;101103.44;281740;34;4515;-76
2023/01/01 00:43:00;;;;;;;;;;;;;;;3.59;100.00;101094.78;281996;35;4109;-76
2023/01/01 00:43:11;;;;;;;;;;;;;;;3.57;100.00;101099.94;276015;35;5707;-76
2023/01/01 00:43:21;;;;;;;;;;;;;;;3.57;100.00;101105.09;275847;35;7090;-76
2023/01/01 00:43:31;;;;;;;;;;;;;;;3.55;100.00;101099.03;276332;35;7501;-76
2023/01/01 00:43:41;;;;;;;;;;;;;;;3.52;100.00;101106.78;275964;35;8780;-76
2023/01/01 00:43:52;;;;;;;;;;;;;;;3.45;100.00;101104.13;273618;35;10145;-76
2023/01/01 00:44:02;;;;;;;;;;;;;;;3.38;100.00;101108.34;277793;35;7406;-76
2023/01/01 00:44:12;;;;;;;;;;;;;;;3.39;100.00;101104.91;274088;35;10254;-76
2023/01/01 00:44:22;;;;;;;;;;;;;;;3.39;100.00;101104.91;274805;35;8898;-76
2023/01/01 00:44:32;;;;;;;;;;;;;;;3.39;100.00;101104.91;273965;36;1533;-76
2023/01/01 00:44:44;;;;;;;;;;;;;;;3.40;100.00;101105.78;268503;36;7187;-76
2023/01/01 00:46:17;;;;;;;;;;;;;;;3.45;100.00;101111.88;2485038;27;19936;-76
2023/01/01 00:46:27;;;;;;;;;;;;;;;3.46;100.00;101111.03;353039;27;4180;-76
2023/01/01 00:46:38;;;;;;;;;;;;;;;3.48;100.00;101109.31;351273;28;4501;-75
2023/01/01 00:46:48;;;;;;;;;;;;;;;3.48;100.00;101110.16;349368;28;6942;-75
2023/01/01 00:46:58;;;;;;;;;;;;;;;3.49;100.00;101109.31;348948;28;4125;-75
2023/01/01 00:47:08;;;;;;;;;;;;;;;3.50;100.00;101113.66;349193;28;1681;-75
2023/01/01 00:47:18;;;;;;;;;;;;;;;3.51;100.00;101109.34;350161;28;3637;-75
2023/01/01 00:47:29;;;;;;;;;;;;;;;3.51;100.00;101110.22;350399;28;1541;-75
2023/01/01 00:47:39;;;;;;;;;;;;;;;3.53;100.00;101112.81;347976;28;4584;-76
2023/01/01 00:47:49;;;;;;;;;;;;;;;3.51;100.00;101112.78;347476;28;6838;-75
2023/01/01 00:48:00;;;;;;;;;;;;;;;3.52;100.00;101108.50;350282;28;4192;-78
2023/01/01 00:48:10;;;;;;;;;;;;;;;3.53;100.00;101107.63;349967;28;1383;-77
2023/01/01 00:48:20;;;;;;;;;;;;;;;3.53;100.00;101113.69;350890;28;4262;-76
2023/01/01 00:48:30;;;;;;;;;;;;;;;3.53;100.00;101111.09;351005;28;1383;-76
2023/01/01 00:48:41;;;;;;;;;;;;;;;3.54;100.00;101115.41;349525;28;6084;-76
2023/01/01 00:48:51;;;;;;;;;;;;;;;3.54;100.00;101111.97;349326;28;4089;-76
2023/01/01 00:49:01;;;;;;;;;;;;;;;3.53;100.00;101116.28;350375;28;1989;-76
2023/01/01 00:49:11;;;;;;;;;;;;;;;3.54;100.00;101115.41;350168;28;1849;-76
2023/01/01 00:49:22;;;;;;;;;;;;;;;3.54;100.00;101112.84;349924;28;7392;-76
2023/01/01 00:49:32;;;;;;;;;;;;;;;3.53;100.00;101112.81;351077;28;4361;-76
2023/01/01 00:49:43;;;;;;;;;;;;;;;3.54;100.00;101122.31;348610;28;6353;-76
2023/01/01 00:49:53;;;;;;;;;;;;;;;3.54;100.00;101120.59;348761;28;4043;-76
2023/01/01 00:50:03;;;;;;;;;;;;;;;3.55;100.00;101114.56;350266;28;2159;-76
2023/01/01 00:50:14;;;;;;;;;;;;;;;3.54;100.00;101119.72;351367;28;3132;-76
2023/01/01 00:50:24;;;;;;;;;;;;;;;3.54;100.00;101115.41;352599;28;1350;-76
2023/01/01 00:50:34;;;;;;;;;;;;;;;3.54;100.00;101118.00;350819;28;4536;-76
2023/01/01 00:50:44;;;;;;;;;;;;;;;3.54;100.00;101114.56;348728;28;6940;-76
2023/01/01 00:50:55;;;;;;;;;;;;;;;3.55;100.00;101116.28;350835;28;1895;-76
2023/01/01 00:51:05;;;;;;;;;;;;;;;3.54;100.00;101118.00;350360;28;1653;-76
2023/01/01 00:51:15;;;;;;;;;;;;;;;3.54;100.00;101115.41;347490;28;3887;-76
2023/01/01 00:51:25;;;;;;;;;;;;;;;3.53;100.00;101118.84;347295;28;1892;-75
2023/01/01 00:51:36;;;;;;;;;;;;;;;3.53;100.00;101118.84;345127;28;7395;-76
2023/01/01 00:51:46;;;;;;;;;;;;;;;3.53;100.00;101123.16;343877;28;4004;-77
2023/01/01 00:51:56;;;;;;;;;;;;;;;3.53;100.00;101118.00;346139;28;1419;-77
2023/01/01 00:52:06;;;;;;;;;;;;;;;3.53;100.00;101112.81;346195;28;1915;-76
2023/01/01 00:52:17;;;;;;;;;;;;;;;3.52;100.00;101117.13;344577;28;4145;-76
2023/01/01 00:52:27;;;;;;;;;;;;;;;3.52;100.00;101122.28;345336;28;1332;-76
2023/01/01 00:52:37;;;;;;;;;;;;;;;3.51;100.00;101117.97;341504;28;6248;-76
2023/01/01 00:52:47;;;;;;;;;;;;;;;3.51;100.00;101119.69;342858;28;3869;-76
2023/01/01 00:52:58;;;;;;;;;;;;;;;3.52;100.00;101124.00;342014;28;1984;-76
2023/01/01 00:53:08;;;;;;;;;;;;;;;3.52;100.00;101116.25;342265;28;4263;-76
2023/01/01 00:53:18;;;;;;;;;;;;;;;3.52;100.00;101114.53;344879;28;1444;-77
2023/01/01 00:53:29;;;;;;;;;;;;;;;3.53;100.00;101113.69;342580;28;4322;-75
2023/01/01 00:53:39;;;;;;;;;;;;;;;3.54;100.00;101118.00;338382;28;6907;-74
2023/01/01 00:53:49;;;;;;;;;;;;;;;3.54;100.00;101120.59;339371;29;2018;-74
2023/01/01 00:53:59;;;;;;;;;;;;;;;3.55;100.00;101121.47;341828;28;1655;-74
2023/01/01 00:54:10;;;;;;;;;;;;;;;3.54;100.00;101115.41;343762;28;7045;-76
2023/01/01 00:54:20;;;;;;;;;;;;;;;3.54;100.00;101120.59;344474;28;1189;-75
2023/01/01 00:54:30;;;;;;;;;;;;;;;3.55;100.00;101119.75;342320;28;6551;-76
2023/01/01 00:54:40;;;;;;;;;;;;;;;3.55;100.00;101111.97;340541;28;4098;-75
2023/01/01 00:54:50;;;;;;;;;;;;;;;3.56;100.00;101112.84;340788;29;7272;-75
2023/01/01 00:55:01;;;;;;;;;;;;;;;3.54;100.00;101110.25;336372;29;1641;-75
2023/01/01 00:55:11;;;;;;;;;;;;;;;3.50;100.00;101116.22;338440;29;4043;-75
2023/01/01 00:55:21;;;;;;;;;;;;;;;3.47;100.00;101113.59;338388;29;991;-76
2023/01/01 00:55:31;;;;;;;;;;;;;;;3.45;100.00;101110.16;333935;29;4668;-75
2023/01/01 00:55:43;;;;;;;;;;;;;;;3.42;100.00;101112.72;337536;29;3884;-76
2023/01/01 00:55:55;;;;;;;;;;;;;;;3.38;100.00;101118.69;336433;29;1660;-76
2023/01/01 00:56:05;;;;;;;;;;;;;;;3.34;100.00;101117.78;334360;29;3923;-76
2023/01/01 00:56:15;;;;;;;;;;;;;;;3.32;100.00;101122.06;337277;29;1468;-76
2023/01/01 00:56:27;;;;;;;;;;;;;;;3.32;100.00;101119.50;332598;29;2092;-75
2023/01/01 00:56:37;;;;;;;;;;;;;;;3.33;100.00;101120.34;329248;29;6325;-76
2023/01/01 00:56:47;;;;;;;;;;;;;;;3.33;100.00;101115.19;328654;30;3858;-76
2023/01/01 00:56:58;;;;;;;;;;;;;;;3.32;100.00;101114.31;332388;29;2173;-76
2023/01/01 00:57:08;;;;;;;;;;;;;;;3.30;100.00;101120.31;335152;29;4174;-76
2023/01/01 00:57:18;;;;;;;;;;;;;;;3.25;100.00;101112.50;334326;29;1493;-76
2023/01/01 00:57:28;;;;;;;;;;;;;;;3.23;100.00;101111.59;333622;29;1490;-76
2023/01/01 00:57:38;;;;;;;;;;;;;;;3.22;100.00;101119.34;328362;29;6349;-76
2023/01/01 00:57:49;;;;;;;;;;;;;;;3.18;100.00;101114.97;331266;29;3907;-76
2023/01/01 00:57:59;;;;;;;;;;;;;;;3.12;100.00;101115.75;331638;29;1449;-76
2023/01/01 00:58:09;;;;;;;;;;;;;;;3.06;100.00;101112.22;328369;30;4125;-76
2023/01/01 00:58:19;;;;;;;;;;;;;;;3.04;100.00;101116.50;324936;30;2125;-76
2023/01/01 00:58:30;;;;;;;;;;;;;;;3.03;100.00;101109.63;328118;30;2137;-76
2023/01/01 00:58:40;;;;;;;;;;;;;;;3.04;100.00;101117.38;328901;29;2550;-76
2023/01/01 00:58:50;;;;;;;;;;;;;;;3.03;100.00;101113.06;329921;30;1231;-76
2023/01/01 00:59:00;;;;;;;;;;;;;;;3.02;100.00;101107.88;328675;30;2320;-76
2023/01/01 00:59:11;;;;;;;;;;;;;;;3.00;100.00;101113.91;328279;30;2308;-75
2023/01/01 00:59:21;;;;;;;;;;;;;;;3.03;100.00;101115.66;325670;30;1187;-76
2023/01/01 00:59:31;;;;;;;;;;;;;;;3.06;100.00;101114.81;324826;30;1769;-76